Time;durP1;ratioP1;P1;durP2;ratioP2;P2;SDS_P1;SDS_P2;PMS_P1;PMS_P2;Temp;Humidity;BMP_temperature;BMP_pressure;BME280_temperature;BME280_humidity;BME280_pressure;Samples;Min_cycle;Max_cycle;Signal;HPM_P1;HPM_P2
2024/01/29 05:01:36;;;;;;;;;;;-3.20;99.90;;;;;;5094212;28;19931;-77
2024/01/29 05:04:03;;;;;;;;;;;-3.20;99.90;;;;;;5095109;28;19931;-77
2024/01/29 05:06:30;;;;;;;;;;;-3.20;99.90;;;;;;5094717;28;20372;-79
2024/01/29 05:08:56;;;;;;;;;;;-3.30;99.90;;;;;;5095116;28;19931;-77
2024/01/29 05:11:23;;;;;;;;;;;-3.20;99.90;;;;;;5094749;28;19924;-77
2024/01/29 05:13:50;;;;;;;;;;;-3.20;99.90;;;;;;5094334;28;19924;-77
2024/01/29 05:16:16;;;;;;;;;;;-3.20;99.90;;;;;;5094704;28;19924;-77
2024/01/29 05:18:44;;;;;;;;;;;-3.20;99.90;;;;;;5094409;28;20403;-76
2024/01/29 05:21:11;;;;;;;;;;;-3.20;99.90;;;;;;5095132;28;19927;-76
2024/01/29 05:23:38;;;;;;;;;;;-3.20;99.90;;;;;;5094552;28;19924;-76
2024/01/29 05:26:05;;;;;;;;;;;-3.10;99.90;;;;;;5094694;28;19924;-77
2024/01/29 05:28:31;;;;;;;;;;;-3.20;99.90;;;;;;5096997;28;20354;-77
2024/01/29 05:30:58;;;;;;;;;;;-3.20;99.90;;;;;;5099101;28;19928;-76
2024/01/29 05:33:24;;;;;;;;;;;-3.20;99.90;;;;;;5098272;28;19924;-76
2024/01/29 05:35:52;;;;;;;;;;;-3.20;99.90;;;;;;5099886;28;19931;-77
2024/01/29 05:38:19;;;;;;;;;;;-3.20;99.90;;;;;;5097899;28;19924;-77
2024/01/29 05:40:46;;;;;;;;;;;-3.20;99.90;;;;;;5095585;28;19928;-76
2024/01/29 05:43:13;;;;;;;;;;;-3.20;99.90;;;;;;5094910;28;19924;-78
2024/01/29 05:45:39;;;;;;;;;;;-3.20;99.90;;;;;;5097597;28;19931;-76
2024/01/29 05:48:07;;;;;;;;;;;-3.20;99.90;;;;;;5096340;28;20315;-76
2024/01/29 05:50:34;;;;;;;;;;;-3.10;99.90;;;;;;5097258;28;19928;-77
2024/01/29 05:53:01;;;;;;;;;;;-3.10;99.90;;;;;;5096752;28;19928;-77
2024/01/29 05:55:28;;;;;;;;;;;-3.10;99.90;;;;;;5096158;28;19924;-78
2024/01/29 05:57:55;;;;;;;;;;;-3.10;99.90;;;;;;5095846;28;20330;-77
2024/01/29 06:00:21;;;;;;;;;;;-3.10;99.90;;;;;;5094291;28;20399;-73
2024/01/29 06:02:49;;;;;;;;;;;-3.10;99.90;;;;;;5094032;28;19928;-72
2024/01/29 06:05:16;;;;;;;;;;;-3.00;99.90;;;;;;5093886;28;19924;-72
2024/01/29 06:07:42;;;;;;;;;;;-3.00;99.90;;;;;;5093859;28;19924;-75
2024/01/29 06:10:12;;;;;;;;;;;-2.90;99.90;;;;;;5093918;28;19932;-75
2024/01/29 06:12:39;;;;;;;;;;;-2.90;99.90;;;;;;5094480;28;19989;-75
2024/01/29 06:15:06;;;;;;;;;;;-2.80;99.90;;;;;;5093538;28;20407;-75
2024/01/29 06:17:33;;;;;;;;;;;-2.80;99.90;;;;;;5093795;28;19971;-75
2024/01/29 06:19:59;;;;;;;;;;;-2.80;99.90;;;;;;5097345;28;19937;-75
2024/01/29 06:22:26;;;;;;;;;;;-2.80;99.90;;;;;;5095938;28;19947;-75
2024/01/29 06:24:52;;;;;;;;;;;-2.80;99.90;;;;;;5097133;28;19938;-75
2024/01/29 06:27:20;;;;;;;;;;;-2.80;99.90;;;;;;5098835;28;19924;-76
2024/01/29 06:29:47;;;;;;;;;;;-2.80;99.90;;;;;;5097317;28;19924;-76
2024/01/29 06:32:13;;;;;;;;;;;-2.90;99.90;;;;;;5097362;28;19931;-75
2024/01/29 06:34:40;;;;;;;;;;;-2.90;99.90;;;;;;5097358;28;20003;-75
2024/01/29 06:37:06;;;;;;;;;;;-2.90;99.90;;;;;;5097451;28;19947;-75
2024/01/29 06:39:33;;;;;;;;;;;-2.90;99.90;;;;;;5097480;28;19947;-75
2024/01/29 06:41:59;;;;;;;;;;;-2.90;99.90;;;;;;5097206;28;19924;-75
2024/01/29 06:44:27;;;;;;;;;;;-2.90;99.90;;;;;;5097282;28;19924;-76
2024/01/29 06:46:54;;;;;;;;;;;-2.90;99.90;;;;;;5097171;28;20277;-75
2024/01/29 06:49:28;;;;;;;;;;;-2.90;99.90;;;;;;5097023;28;19928;-77
2024/01/29 06:51:54;;;;;;;;;;;-2.90;99.90;;;;;;5097129;28;19924;-76
2024/01/29 06:54:21;;;;;;;;;;;-2.90;99.90;;;;;;5096678;28;20407;-76
2024/01/29 06:56:47;;;;;;;;;;;-2.90;99.90;;;;;;5096607;28;20389;-76
2024/01/29 06:59:14;;;;;;;;;;;-2.80;99.90;;;;;;5096594;28;20408;-76
2024/01/29 07:01:42;;;;;;;;;;;-2.80;99.90;;;;;;5096865;28;20358;-76
2024/01/29 07:04:08;;;;;;;;;;;-2.70;99.90;;;;;;5096925;28;19928;-76
2024/01/29 07:06:35;;;;;;;;;;;-2.70;99.90;;;;;;5096918;28;20292;-76
2024/01/29 07:09:01;;;;;;;;;;;-2.60;99.90;;;;;;5096412;28;19928;-76
2024/01/29 07:11:28;;;;;;;;;;;-2.60;99.90;;;;;;5096688;28;19932;-76
2024/01/29 07:13:54;;;;;;;;;;;-2.60;99.90;;;;;;5096865;28;19924;-76
2024/01/29 07:16:21;;;;;;;;;;;-2.50;99.90;;;;;;5096730;28;19928;-76
2024/01/29 07:18:49;;;;;;;;;;;-2.50;99.90;;;;;;5098044;28;19924;-76
2024/01/29 07:21:16;;;;;;;;;;;-2.40;99.90;;;;;;5097409;28;20431;-76
2024/01/29 07:23:43;;;;;;;;;;;-2.40;99.90;;;;;;5097671;28;19931;-76
2024/01/29 07:26:10;;;;;;;;;;;-2.30;99.90;;;;;;5097191;28;20007;-76
2024/01/29 07:28:37;;;;;;;;;;;-2.30;99.90;;;;;;5097913;28;19931;-76
2024/01/29 07:31:04;;;;;;;;;;;-2.20;99.90;;;;;;5096857;28;19924;-76
2024/01/29 07:33:30;;;;;;;;;;;-2.20;99.90;;;;;;5097944;28;19924;-76
2024/01/29 07:35:59;;;;;;;;;;;-2.10;99.90;;;;;;5097197;28;19931;-76
2024/01/29 07:38:25;;;;;;;;;;;-2.00;99.90;;;;;;5097590;28;19931;-76
2024/01/29 07:40:52;;;;;;;;;;;-1.90;99.90;;;;;;5097335;28;20020;-76
2024/01/29 07:43:19;;;;;;;;;;;-1.80;99.90;;;;;;5096978;28;19924;-77
2024/01/29 07:45:46;;;;;;;;;;;-1.60;99.90;;;;;;5097103;28;19924;-76
2024/01/29 07:48:12;;;;;;;;;;;-1.30;99.90;;;;;;5097269;28;19994;-76
2024/01/29 07:50:39;;;;;;;;;;;-0.90;99.90;;;;;;5097120;28;19928;-76
2024/01/29 07:53:07;;;;;;;;;;;-0.30;99.90;;;;;;5095873;28;19931;-76
2024/01/29 07:55:33;;;;;;;;;;;0.30;99.90;;;;;;5095763;28;19924;-76
2024/01/29 07:58:00;;;;;;;;;;;1.10;99.90;;;;;;5095793;28;19928;-76
2024/01/29 08:00:26;;;;;;;;;;;1.80;99.90;;;;;;5095846;28;19928;-76
2024/01/29 08:02:53;;;;;;;;;;;2.60;99.90;;;;;;5095541;28;19924;-76
2024/01/29 08:05:19;;;;;;;;;;;3.30;99.90;;;;;;5095644;28;19924;-76
2024/01/29 08:07:46;;;;;;;;;;;4.10;99.90;;;;;;5095575;28;19924;-76
2024/01/29 08:10:14;;;;;;;;;;;4.70;99.90;;;;;;5095045;28;20306;-77
2024/01/29 08:12:41;;;;;;;;;;;5.30;99.90;;;;;;5095484;28;19931;-77
2024/01/29 08:15:07;;;;;;;;;;;5.80;99.90;;;;;;5095079;28;19933;-78
2024/01/29 08:17:34;;;;;;;;;;;6.10;99.90;;;;;;5095089;28;20399;-77
2024/01/29 08:20:00;;;;;;;;;;;6.20;99.90;;;;;;5095283;28;19924;-77
2024/01/29 08:22:27;;;;;;;;;;;6.40;99.90;;;;;;5095332;28;20293;-77
2024/01/29 08:24:54;;;;;;;;;;;6.60;99.90;;;;;;5096360;28;19931;-76
2024/01/29 08:27:21;;;;;;;;;;;7.00;99.90;;;;;;5103178;28;19932;-74
2024/01/29 08:29:48;;;;;;;;;;;7.40;99.90;;;;;;5102652;28;19924;-74
2024/01/29 08:32:15;;;;;;;;;;;7.90;99.90;;;;;;5100434;28;19927;-74
2024/01/29 08:34:41;;;;;;;;;;;8.40;99.90;;;;;;5100212;28;20393;-75
2024/01/29 08:37:08;;;;;;;;;;;8.90;99.90;;;;;;5100203;28;19931;-75
2024/01/29 08:39:35;;;;;;;;;;;9.60;99.90;;;;;;5096282;28;19924;-76
2024/01/29 08:42:03;;;;;;;;;;;10.40;99.90;;;;;;5095008;28;20459;-76
2024/01/29 08:44:31;;;;;;;;;;;10.80;99.90;;;;;;5095145;28;19928;-76
2024/01/29 08:46:58;;;;;;;;;;;11.20;99.90;;;;;;5095153;28;20001;-76
2024/01/29 08:49:24;;;;;;;;;;;11.40;99.90;;;;;;5094105;28;20300;-76
2024/01/29 08:51:51;;;;;;;;;;;11.60;99.90;;;;;;5094974;28;19924;-77
2024/01/29 08:54:18;;;;;;;;;;;11.60;99.90;;;;;;5094795;28;19924;-76
2024/01/29 08:56:44;;;;;;;;;;;11.60;99.90;;;;;;5094918;28;19924;-77
2024/01/29 08:59:12;;;;;;;;;;;11.60;99.90;;;;;;5094933;28;20432;-77
2024/01/29 09:01:40;;;;;;;;;;;11.50;97.80;;;;;;5094786;28;20022;-77
2024/01/29 09:04:07;;;;;;;;;;;11.10;94.40;;;;;;5094928;28;19931;-77
2024/01/29 09:06:33;;;;;;;;;;;10.80;99.90;;;;;;5094726;28;19928;-76
2024/01/29 09:09:00;;;;;;;;;;;10.60;99.80;;;;;;5094368;28;19935;-76
2024/01/29 09:11:26;;;;;;;;;;;10.40;99.90;;;;;;5094173;28;19974;-76
2024/01/29 09:13:53;;;;;;;;;;;10.20;99.90;;;;;;5094576;28;19928;-76
2024/01/29 09:16:19;;;;;;;;;;;10.00;99.90;;;;;;5094348;28;19932;-76
2024/01/29 09:18:47;;;;;;;;;;;9.80;99.90;;;;;;5094374;28;19931;-76
2024/01/29 09:21:14;;;;;;;;;;;9.70;99.90;;;;;;5094308;28;19947;-76
2024/01/29 09:23:40;;;;;;;;;;;10.10;99.90;;;;;;5094012;28;20339;-76
2024/01/29 09:26:07;;;;;;;;;;;10.40;99.90;;;;;;5094128;28;19932;-76
2024/01/29 09:28:34;;;;;;;;;;;11.00;99.90;;;;;;5094468;28;20065;-76
2024/01/29 09:31:01;;;;;;;;;;;11.40;99.90;;;;;;5094495;28;20296;-76
2024/01/29 09:33:27;;;;;;;;;;;11.90;99.90;;;;;;5096500;28;20266;-78
2024/01/29 09:35:55;;;;;;;;;;;12.20;96.20;;;;;;5094881;28;19924;-76
2024/01/29 09:38:22;;;;;;;;;;;12.60;90.70;;;;;;5094434;28;19998;-76
2024/01/29 09:40:49;;;;;;;;;;;12.90;83.20;;;;;;5094372;28;19924;-76
2024/01/29 09:43:16;;;;;;;;;;;13.20;78.90;;;;;;5096714;28;19924;-76
2024/01/29 09:45:43;;;;;;;;;;;13.50;73.30;;;;;;5102876;28;19935;-76
2024/01/29 09:48:15;;;;;;;;;;;13.70;67.40;;;;;;5102669;28;19924;-76
2024/01/29 09:50:43;;;;;;;;;;;13.90;64.10;;;;;;5096489;28;19931;-76
2024/01/29 09:53:14;;;;;;;;;;;14.20;63.90;;;;;;5093856;28;19947;-76
2024/01/29 09:55:40;;;;;;;;;;;14.50;62.90;;;;;;5094015;28;19931;-76
2024/01/29 09:58:07;;;;;;;;;;;14.90;60.50;;;;;;5093885;28;19939;-76
2024/01/29 10:00:33;;;;;;;;;;;15.20;58.80;;;;;;5095707;28;19928;-76
2024/01/29 10:03:01;;;;;;;;;;;15.40;59.20;;;;;;5097886;28;19931;-76
2024/01/29 10:05:30;;;;;;;;;;;15.40;59.10;;;;;;5097956;28;19931;-76
2024/01/29 10:07:57;;;;;;;;;;;14.90;58.50;;;;;;5097912;28;19969;-77
2024/01/29 10:10:26;;;;;;;;;;;14.30;68.70;;;;;;5097354;28;20381;-76
2024/01/29 10:13:02;;;;;;;;;;;13.60;80.60;;;;;;5097798;28;19924;-76
2024/01/29 10:15:30;;;;;;;;;;;12.90;92.60;;;;;;5097849;28;19928;-76
2024/01/29 10:17:56;;;;;;;;;;;12.20;99.90;;;;;;5098250;28;19931;-76
2024/01/29 10:20:23;;;;;;;;;;;11.60;99.90;;;;;;5097577;28;19931;-76
2024/01/29 10:23:00;;;;;;;;;;;11.00;99.90;;;;;;5097587;28;20011;-76
2024/01/29 10:25:29;;;;;;;;;;;10.40;99.90;;;;;;5097581;28;19924;-76
2024/01/29 10:28:04;;;;;;;;;;;9.80;99.90;;;;;;5097448;28;19970;-76
2024/01/29 10:30:30;;;;;;;;;;;9.40;99.90;;;;;;5097017;28;20373;-76
2024/01/29 10:32:57;;;;;;;;;;;9.10;99.90;;;;;;5097437;28;19927;-76
2024/01/29 10:35:25;;;;;;;;;;;8.70;99.90;;;;;;5097400;28;19935;-76
2024/01/29 10:37:51;;;;;;;;;;;8.30;99.90;;;;;;5097167;28;20365;-76
2024/01/29 10:40:22;;;;;;;;;;;8.10;99.90;;;;;;5097199;28;19924;-76
2024/01/29 10:42:51;;;;;;;;;;;7.90;99.90;;;;;;5097234;28;19924;-76
2024/01/29 10:45:19;;;;;;;;;;;7.80;99.90;;;;;;5097270;28;19936;-76
2024/01/29 10:47:47;;;;;;;;;;;7.60;99.90;;;;;;5097176;28;19924;-76
2024/01/29 10:50:16;;;;;;;;;;;7.50;99.90;;;;;;5096714;28;20404;-76
2024/01/29 10:52:44;;;;;;;;;;;7.30;99.90;;;;;;5097418;28;19930;-75
2024/01/29 10:55:11;;;;;;;;;;;7.20;99.90;;;;;;5096958;28;19931;-75
2024/01/29 10:57:38;;;;;;;;;;;7.10;99.90;;;;;;5096931;28;19924;-76
2024/01/29 11:00:08;;;;;;;;;;;7.00;99.90;;;;;;5096513;28;19947;-76
2024/01/29 11:02:35;;;;;;;;;;;6.90;99.90;;;;;;5096756;28;19974;-76
2024/01/29 11:05:02;;;;;;;;;;;6.80;99.90;;;;;;5097114;28;19925;-76
2024/01/29 11:07:29;;;;;;;;;;;6.80;99.90;;;;;;5096834;28;19931;-76
2024/01/29 11:09:58;;;;;;;;;;;6.80;99.90;;;;;;5096630;28;19928;-76
2024/01/29 11:12:25;;;;;;;;;;;6.70;99.90;;;;;;5096229;28;19931;-75
2024/01/29 11:15:00;;;;;;;;;;;6.70;99.90;;;;;;5096321;28;20308;-75
2024/01/29 11:17:28;;;;;;;;;;;6.70;99.90;;;;;;5096471;28;20400;-75
2024/01/29 11:19:54;;;;;;;;;;;6.80;99.90;;;;;;5096484;28;19939;-75
2024/01/29 11:22:21;;;;;;;;;;;6.70;99.90;;;;;;5096530;28;19931;-75
2024/01/29 11:24:47;;;;;;;;;;;6.80;99.90;;;;;;5096361;28;19924;-75
2024/01/29 11:27:14;;;;;;;;;;;6.80;99.90;;;;;;5096413;28;19928;-75
2024/01/29 11:29:44;;;;;;;;;;;6.80;99.90;;;;;;5095940;28;20384;-75
2024/01/29 11:32:15;;;;;;;;;;;6.80;99.90;;;;;;5096404;28;20416;-75
2024/01/29 11:34:43;;;;;;;;;;;6.80;99.90;;;;;;5096209;28;20456;-74
2024/01/29 11:37:09;;;;;;;;;;;6.80;99.90;;;;;;5096200;28;19950;-74
2024/01/29 11:39:43;;;;;;;;;;;6.80;99.90;;;;;;5096066;28;19924;-75
2024/01/29 11:42:10;;;;;;;;;;;6.80;99.90;;;;;;5096312;28;20339;-75
2024/01/29 11:44:36;;;;;;;;;;;6.90;99.90;;;;;;5096002;28;19930;-75
2024/01/29 11:47:08;;;;;;;;;;;6.90;99.90;;;;;;5096102;28;19928;-75
2024/01/29 11:49:34;;;;;;;;;;;6.90;99.90;;;;;;5095667;28;20377;-76
2024/01/29 11:52:02;;;;;;;;;;;7.00;99.90;;;;;;5095795;28;19924;-75
2024/01/29 12:04:04;;;;;;;;;;;7.10;99.90;;;;;;5817867;22;19925;-76
2024/01/29 12:06:34;;;;;;;;;;;7.20;99.90;;;;;;5055417;28;19932;-75
2024/01/29 12:09:02;;;;;;;;;;;7.30;99.90;;;;;;5055447;28;19924;-75
2024/01/29 12:11:29;;;;;;;;;;;7.30;99.90;;;;;;5055313;28;19931;-74
2024/01/29 12:13:57;;;;;;;;;;;7.30;99.90;;;;;;5055117;28;19925;-74
2024/01/29 12:16:23;;;;;;;;;;;7.40;99.90;;;;;;5057708;28;19955;-76
2024/01/29 12:18:50;;;;;;;;;;;7.40;99.90;;;;;;5060299;28;19925;-76
2024/01/29 12:21:17;;;;;;;;;;;7.40;99.90;;;;;;5097956;22;19932;-71
2024/01/29 12:23:45;;;;;;;;;;;7.40;99.90;;;;;;5056174;28;19931;-71
2024/01/29 12:26:13;;;;;;;;;;;7.50;99.90;;;;;;5056827;28;20381;-71
2024/01/29 12:28:40;;;;;;;;;;;7.50;99.90;;;;;;5056887;28;19966;-71
2024/01/29 12:31:06;;;;;;;;;;;7.50;99.90;;;;;;5057074;28;19925;-71
2024/01/29 12:33:34;;;;;;;;;;;7.60;99.90;;;;;;5057134;28;19937;-71
2024/01/29 12:36:10;;;;;;;;;;;7.60;99.90;;;;;;5056297;28;19947;-71
2024/01/29 12:38:37;;;;;;;;;;;7.70;99.90;;;;;;5056820;28;19933;-72
2024/01/29 12:41:04;;;;;;;;;;;7.70;99.90;;;;;;5056466;28;20392;-71
2024/01/29 12:43:32;;;;;;;;;;;7.70;99.90;;;;;;5055937;28;20315;-70
2024/01/29 12:46:05;;;;;;;;;;;7.80;99.90;;;;;;5056122;28;20297;-72
2024/01/29 12:48:31;;;;;;;;;;;7.80;99.90;;;;;;5056320;28;19934;-73
2024/01/29 12:50:58;;;;;;;;;;;7.80;99.90;;;;;;5055688;28;20293;-71
2024/01/29 12:53:24;;;;;;;;;;;7.80;99.90;;;;;;5055938;28;20357;-71
2024/01/29 12:55:51;;;;;;;;;;;7.80;99.90;;;;;;5054795;28;20390;-71
2024/01/29 12:58:18;;;;;;;;;;;7.80;99.90;;;;;;5055189;28;19928;-70
2024/01/29 13:00:45;;;;;;;;;;;7.70;99.90;;;;;;5054808;28;19925;-71
2024/01/29 13:03:12;;;;;;;;;;;7.70;99.90;;;;;;5054586;28;19925;-71
2024/01/29 13:05:39;;;;;;;;;;;7.70;99.90;;;;;;5054926;28;19932;-71
2024/01/29 13:08:05;;;;;;;;;;;7.70;99.90;;;;;;5054806;28;19932;-71
2024/01/29 13:10:32;;;;;;;;;;;7.70;99.90;;;;;;5055885;28;19925;-71
2024/01/29 13:13:03;;;;;;;;;;;7.70;99.90;;;;;;5055760;28;19932;-71
2024/01/29 13:15:29;;;;;;;;;;;7.70;99.90;;;;;;5056780;28;19925;-70
2024/01/29 13:17:57;;;;;;;;;;;7.70;99.90;;;;;;5054970;28;19925;-70
2024/01/29 13:20:24;;;;;;;;;;;7.70;99.90;;;;;;5054172;28;20404;-70
2024/01/29 13:22:50;;;;;;;;;;;7.70;99.90;;;;;;5054050;28;19924;-70
2024/01/29 13:25:17;;;;;;;;;;;7.70;99.90;;;;;;5054431;28;20389;-72
2024/01/29 13:27:44;;;;;;;;;;;7.70;99.90;;;;;;5054520;28;19929;-71
2024/01/29 13:30:11;;;;;;;;;;;7.70;99.90;;;;;;5054620;28;19932;-71
2024/01/29 13:32:38;;;;;;;;;;;7.70;99.90;;;;;;5054379;28;20420;-70
2024/01/29 13:35:07;;;;;;;;;;;7.70;99.90;;;;;;5055016;28;19956;-71
2024/01/29 13:37:34;;;;;;;;;;;7.70;99.90;;;;;;5054150;28;19925;-69
2024/01/29 13:40:01;;;;;;;;;;;7.70;99.90;;;;;;5054087;28;19925;-69
2024/01/29 13:42:27;;;;;;;;;;;7.70;99.90;;;;;;5053876;28;19925;-69
2024/01/29 13:44:57;;;;;;;;;;;7.70;99.90;;;;;;5053789;28;20393;-69
2024/01/29 13:47:23;;;;;;;;;;;7.60;99.90;;;;;;5054142;28;19936;-69
2024/01/29 13:49:51;;;;;;;;;;;7.60;99.90;;;;;;5054160;28;19925;-70
2024/01/29 13:52:19;;;;;;;;;;;7.60;99.90;;;;;;5054235;28;19948;-69
2024/01/29 13:54:45;;;;;;;;;;;7.50;99.90;;;;;;5054180;28;20346;-70
2024/01/29 13:57:12;;;;;;;;;;;7.50;99.90;;;;;;5053955;28;19925;-70
2024/01/29 13:59:39;;;;;;;;;;;7.50;99.90;;;;;;5054322;28;19924;-70
2024/01/29 14:02:05;;;;;;;;;;;7.40;99.90;;;;;;5053993;28;19924;-69
2024/01/29 14:04:32;;;;;;;;;;;7.40;99.90;;;;;;5053463;28;19924;-69
2024/01/29 14:06:59;;;;;;;;;;;7.30;99.90;;;;;;5053743;28;19961;-70
2024/01/29 14:09:28;;;;;;;;;;;7.20;99.90;;;;;;5053533;28;20378;-70
2024/01/29 14:11:56;;;;;;;;;;;7.20;99.90;;;;;;5054342;28;19924;-71
2024/01/29 14:14:22;;;;;;;;;;;7.10;99.90;;;;;;5053947;28;19925;-70
2024/01/29 14:16:49;;;;;;;;;;;7.10;99.90;;;;;;5053801;28;19932;-70
2024/01/29 14:19:16;;;;;;;;;;;7.00;99.90;;;;;;5054028;28;19925;-71
2024/01/29 14:21:42;;;;;;;;;;;6.90;99.90;;;;;;5053643;28;19976;-71
2024/01/29 14:24:09;;;;;;;;;;;6.90;99.90;;;;;;5054593;28;19925;-71
2024/01/29 14:26:37;;;;;;;;;;;6.80;99.90;;;;;;5054455;28;19932;-71
2024/01/29 14:29:04;;;;;;;;;;;6.80;99.90;;;;;;5054062;28;19929;-72
2024/01/29 14:31:31;;;;;;;;;;;6.70;99.90;;;;;;5053823;28;19925;-71
2024/01/29 14:33:58;;;;;;;;;;;6.70;99.90;;;;;;5053749;28;19932;-72
2024/01/29 14:36:24;;;;;;;;;;;6.60;99.90;;;;;;5053897;28;19951;-71
2024/01/29 14:38:55;;;;;;;;;;;6.60;99.90;;;;;;5054019;28;19929;-71
2024/01/29 14:41:22;;;;;;;;;;;6.50;99.90;;;;;;5053626;28;19982;-71
2024/01/29 14:43:50;;;;;;;;;;;6.50;99.90;;;;;;5054000;28;19925;-71
2024/01/29 14:46:18;;;;;;;;;;;6.40;99.90;;;;;;5054901;28;19932;-72
2024/01/29 14:48:45;;;;;;;;;;;6.40;99.90;;;;;;5057160;28;19924;-71
2024/01/29 14:51:11;;;;;;;;;;;6.40;99.90;;;;;;5056693;28;19925;-70
2024/01/29 14:53:38;;;;;;;;;;;6.30;99.90;;;;;;5057399;28;20298;-71
2024/01/29 14:56:05;;;;;;;;;;;6.30;99.90;;;;;;5056936;28;19929;-73
2024/01/29 14:58:32;;;;;;;;;;;6.20;99.90;;;;;;5056592;28;20382;-73
2024/01/29 15:01:00;;;;;;;;;;;6.20;99.90;;;;;;5056836;28;19925;-73
2024/01/29 15:03:26;;;;;;;;;;;6.20;99.90;;;;;;5056696;28;20306;-73
2024/01/29 15:05:53;;;;;;;;;;;6.10;99.90;;;;;;5056690;28;20405;-73
2024/01/29 15:08:19;;;;;;;;;;;6.10;99.90;;;;;;5056623;28;20328;-73
2024/01/29 15:10:47;;;;;;;;;;;6.00;99.90;;;;;;5058906;28;20000;-73
2024/01/29 15:13:14;;;;;;;;;;;6.00;99.90;;;;;;5059451;28;19925;-74
2024/01/29 15:15:41;;;;;;;;;;;6.00;99.90;;;;;;5056788;28;19924;-74
2024/01/29 15:18:09;;;;;;;;;;;5.90;99.90;;;;;;5056595;28;19931;-74
2024/01/29 15:20:35;;;;;;;;;;;5.90;99.90;;;;;;5056421;28;19925;-74
2024/01/29 15:23:02;;;;;;;;;;;5.90;99.90;;;;;;5056310;28;19925;-74
2024/01/29 15:25:28;;;;;;;;;;;5.80;99.90;;;;;;5056736;28;19991;-74
2024/01/29 15:27:55;;;;;;;;;;;5.80;99.90;;;;;;5056764;28;19924;-75
2024/01/29 15:30:25;;;;;;;;;;;5.70;99.90;;;;;;5056748;28;19932;-73
2024/01/29 15:32:51;;;;;;;;;;;5.70;99.90;;;;;;5056240;28;19970;-74
2024/01/29 15:35:19;;;;;;;;;;;5.60;99.90;;;;;;5056523;28;19947;-73
2024/01/29 15:37:46;;;;;;;;;;;5.50;99.90;;;;;;5056796;28;20263;-72
2024/01/29 15:40:13;;;;;;;;;;;5.50;99.90;;;;;;5056333;28;19924;-72
2024/01/29 15:42:39;;;;;;;;;;;5.40;99.90;;;;;;5056390;28;19925;-73
2024/01/29 15:45:07;;;;;;;;;;;5.30;99.90;;;;;;5056253;28;19924;-73
2024/01/29 15:47:34;;;;;;;;;;;5.30;99.90;;;;;;5056004;28;20417;-72
2024/01/29 15:50:00;;;;;;;;;;;5.20;99.90;;;;;;5056105;28;19947;-73
2024/01/29 15:52:28;;;;;;;;;;;5.10;99.90;;;;;;5055848;28;20386;-73
2024/01/29 15:54:56;;;;;;;;;;;5.00;99.90;;;;;;5056184;28;19928;-73
2024/01/29 15:57:23;;;;;;;;;;;4.90;99.90;;;;;;5055071;28;19932;-73
2024/01/29 15:59:50;;;;;;;;;;;4.90;99.90;;;;;;5055849;28;19976;-73
2024/01/29 16:02:17;;;;;;;;;;;4.80;99.90;;;;;;5055931;28;20002;-73
2024/01/29 16:04:43;;;;;;;;;;;4.70;99.90;;;;;;5056266;28;19932;-73
2024/01/29 16:07:10;;;;;;;;;;;4.60;99.90;;;;;;5056025;28;20393;-74
2024/01/29 16:09:38;;;;;;;;;;;4.50;99.90;;;;;;5056033;28;19990;-74
2024/01/29 16:12:06;;;;;;;;;;;4.40;99.90;;;;;;5055785;28;19932;-74
2024/01/29 16:14:33;;;;;;;;;;;4.30;99.90;;;;;;5056191;28;19975;-75
2024/01/29 16:16:59;;;;;;;;;;;4.30;99.90;;;;;;5057001;28;19925;-73
2024/01/29 16:19:26;;;;;;;;;;;4.20;99.90;;;;;;5057006;28;19928;-73
2024/01/29 16:21:53;;;;;;;;;;;4.10;99.90;;;;;;5055457;28;19964;-75
2024/01/29 16:24:20;;;;;;;;;;;4.00;99.90;;;;;;5055607;28;19925;-74
2024/01/29 16:26:49;;;;;;;;;;;4.00;99.90;;;;;;5055584;28;19925;-69
2024/01/29 16:29:16;;;;;;;;;;;3.90;99.90;;;;;;5055663;28;19928;-70
2024/01/29 16:31:43;;;;;;;;;;;3.80;99.90;;;;;;5055342;28;19925;-69
2024/01/29 16:34:09;;;;;;;;;;;3.70;99.90;;;;;;5055421;28;19979;-70
2024/01/29 16:36:36;;;;;;;;;;;3.70;99.90;;;;;;5055231;28;19932;-70
2024/01/29 16:39:03;;;;;;;;;;;3.70;99.90;;;;;;5055298;28;19925;-70
2024/01/29 16:41:29;;;;;;;;;;;3.60;99.90;;;;;;5055124;28;20015;-71
2024/01/29 16:43:57;;;;;;;;;;;3.60;99.90;;;;;;5055221;28;19971;-70
2024/01/29 16:46:24;;;;;;;;;;;3.50;99.90;;;;;;5054764;28;19925;-70
2024/01/29 16:48:50;;;;;;;;;;;3.40;99.90;;;;;;5054776;28;19932;-70
2024/01/29 16:51:21;;;;;;;;;;;3.40;99.90;;;;;;5054632;28;19931;-70
2024/01/29 16:53:47;;;;;;;;;;;3.30;99.90;;;;;;5055806;28;19925;-70
2024/01/29 16:56:14;;;;;;;;;;;3.30;99.90;;;;;;5054985;28;20285;-70
2024/01/29 16:58:40;;;;;;;;;;;3.20;99.90;;;;;;5054673;28;19929;-71
2024/01/29 17:01:08;;;;;;;;;;;3.20;99.90;;;;;;5054838;28;19925;-71
2024/01/29 17:03:37;;;;;;;;;;;3.10;99.90;;;;;;5054896;28;19932;-71
2024/01/29 17:06:04;;;;;;;;;;;3.00;99.90;;;;;;5054739;28;19932;-71
2024/01/29 17:08:30;;;;;;;;;;;2.90;99.90;;;;;;5054557;28;19925;-71
2024/01/29 17:10:57;;;;;;;;;;;2.80;99.90;;;;;;5054624;28;19928;-71
2024/01/29 17:13:23;;;;;;;;;;;2.70;99.90;;;;;;5054472;28;19932;-71
2024/01/29 17:15:52;;;;;;;;;;;2.60;99.90;;;;;;5054595;28;19929;-71
2024/01/29 17:18:20;;;;;;;;;;;2.60;99.90;;;;;;5054710;28;20028;-71
2024/01/29 17:20:46;;;;;;;;;;;2.60;99.90;;;;;;5053804;28;19928;-71
2024/01/29 17:23:13;;;;;;;;;;;2.50;99.90;;;;;;5054255;28;19970;-72
2024/01/29 17:25:39;;;;;;;;;;;2.50;99.90;;;;;;5054200;28;19924;-71
2024/01/29 17:28:06;;;;;;;;;;;2.50;99.90;;;;;;5054136;28;19929;-70
2024/01/29 17:30:33;;;;;;;;;;;2.40;99.90;;;;;;5054507;28;19929;-70
2024/01/29 17:32:59;;;;;;;;;;;2.40;99.90;;;;;;5054777;28;19925;-71
2024/01/29 17:35:27;;;;;;;;;;;2.30;99.90;;;;;;5054797;28;20328;-70
2024/01/29 17:37:54;;;;;;;;;;;2.20;99.90;;;;;;5055030;28;19974;-71
2024/01/29 17:40:20;;;;;;;;;;;2.10;99.90;;;;;;5054580;28;19924;-71
2024/01/29 17:42:47;;;;;;;;;;;2.10;99.90;;;;;;5053934;28;19925;-71
2024/01/29 17:45:14;;;;;;;;;;;2.00;99.90;;;;;;5055346;28;19932;-71
2024/01/29 17:47:41;;;;;;;;;;;2.00;99.90;;;;;;5054676;28;19980;-71
2024/01/29 17:50:08;;;;;;;;;;;2.00;99.90;;;;;;5054187;28;19925;-71
2024/01/29 17:52:36;;;;;;;;;;;1.90;99.90;;;;;;5055005;28;19974;-71
2024/01/29 17:55:03;;;;;;;;;;;1.90;99.90;;;;;;5053876;28;19924;-71
2024/01/29 17:57:30;;;;;;;;;;;1.80;99.90;;;;;;5054949;28;19996;-69
2024/01/29 17:59:56;;;;;;;;;;;1.80;99.90;;;;;;5054316;28;19971;-70
2024/01/29 18:02:23;;;;;;;;;;;1.70;99.90;;;;;;5054077;28;19925;-70
2024/01/29 18:04:50;;;;;;;;;;;1.70;99.90;;;;;;5054140;28;19952;-70
2024/01/29 18:07:16;;;;;;;;;;;1.60;99.90;;;;;;5053871;28;20404;-70
2024/01/29 18:09:46;;;;;;;;;;;1.60;99.90;;;;;;5054236;28;19932;-71
2024/01/29 18:12:12;;;;;;;;;;;1.50;99.90;;;;;;5053674;28;19933;-70
2024/01/29 18:14:39;;;;;;;;;;;1.50;99.90;;;;;;5054086;28;20325;-70
2024/01/29 18:17:06;;;;;;;;;;;1.40;99.90;;;;;;5054492;28;19933;-69
2024/01/29 18:19:32;;;;;;;;;;;1.40;99.90;;;;;;5054122;28;19925;-71
2024/01/29 18:21:59;;;;;;;;;;;1.40;99.90;;;;;;5056502;28;19924;-71
2024/01/29 18:24:25;;;;;;;;;;;1.40;99.90;;;;;;5058354;28;20000;-72
2024/01/29 18:26:53;;;;;;;;;;;1.30;99.90;;;;;;5058471;28;19928;-71
2024/01/29 18:29:20;;;;;;;;;;;1.30;99.90;;;;;;5058097;28;20012;-72
2024/01/29 18:31:47;;;;;;;;;;;1.30;99.90;;;;;;5058548;28;19925;-71
2024/01/29 18:34:14;;;;;;;;;;;1.20;99.90;;;;;;5058188;28;19980;-70
2024/01/29 18:36:40;;;;;;;;;;;1.20;99.90;;;;;;5058113;28;19924;-71
2024/01/29 18:39:08;;;;;;;;;;;1.20;99.90;;;;;;5058133;28;19925;-72
2024/01/29 18:41:35;;;;;;;;;;;1.20;99.90;;;;;;5057951;28;19924;-71
2024/01/29 18:44:03;;;;;;;;;;;1.10;99.90;;;;;;5058074;28;19931;-71
2024/01/29 18:46:29;;;;;;;;;;;1.10;99.90;;;;;;5058810;28;19925;-72
2024/01/29 18:48:56;;;;;;;;;;;1.00;99.90;;;;;;5058416;28;19925;-71
2024/01/29 18:51:26;;;;;;;;;;;1.00;99.90;;;;;;5057778;28;20039;-71
2024/01/29 18:53:54;;;;;;;;;;;1.00;99.90;;;;;;5057921;28;20035;-71
2024/01/29 18:56:20;;;;;;;;;;;0.90;99.90;;;;;;5057748;28;19932;-70
2024/01/29 18:58:47;;;;;;;;;;;0.80;99.90;;;;;;5057890;28;19929;-73
2024/01/29 19:01:15;;;;;;;;;;;0.80;99.90;;;;;;5057880;28;20302;-71
2024/01/29 19:03:42;;;;;;;;;;;0.80;99.90;;;;;;5057569;28;19932;-71
2024/01/29 19:06:09;;;;;;;;;;;0.70;99.90;;;;;;5058555;28;19924;-71
2024/01/29 19:08:35;;;;;;;;;;;0.70;99.90;;;;;;5057778;28;19971;-71
2024/01/29 19:11:02;;;;;;;;;;;0.60;99.90;;;;;;5058399;28;20297;-71
2024/01/29 19:13:29;;;;;;;;;;;0.60;99.90;;;;;;5058258;28;19929;-72
2024/01/29 19:15:55;;;;;;;;;;;0.60;99.90;;;;;;5058146;28;19968;-72
2024/01/29 19:18:23;;;;;;;;;;;0.50;99.90;;;;;;5058300;28;19932;-72
2024/01/29 19:20:52;;;;;;;;;;;0.60;99.90;;;;;;5057837;28;19935;-72
2024/01/29 19:23:19;;;;;;;;;;;0.50;99.90;;;;;;5057905;28;19924;-72
2024/01/29 19:25:46;;;;;;;;;;;0.40;99.90;;;;;;5059079;28;19971;-72
2024/01/29 19:28:13;;;;;;;;;;;0.50;99.90;;;;;;5077573;28;19925;-72
2024/01/29 19:30:41;;;;;;;;;;;0.50;99.90;;;;;;5078958;28;19925;-73
2024/01/29 19:33:08;;;;;;;;;;;0.40;99.90;;;;;;5067767;28;19984;-72
2024/01/29 19:35:36;;;;;;;;;;;0.40;99.90;;;;;;5058103;28;19924;-71